Time;durP1;ratioP1;P1;durP2;ratioP2;P2;SDS_P1;SDS_P2;PMS_P1;PMS_P2;Temp;Humidity;BMP_temperature;BMP_pressure;BME280_temperature;BME280_humidity;BME280_pressure;Samples;Min_cycle;Max_cycle;Signal;HPM_P1;HPM_P2
2021/10/26 00:01:05;;;;;;;7.13;4.90;;;;;;;4.34;100.00;95693.91;4979255;28;20029;-60
2021/10/26 00:03:37;;;;;;;10.27;5.20;;;;;;;4.33;100.00;95699.41;5015911;28;20029;-60
2021/10/26 00:06:02;;;;;;;9.75;4.85;;;;;;;4.31;100.00;95704.91;4995336;28;20100;-59
2021/10/26 00:08:30;;;;;;;6.60;4.15;;;;;;;4.26;100.00;95702.09;5013486;28;20073;-60
2021/10/26 00:10:55;;;;;;;6.50;4.47;;;;;;;4.23;100.00;95709.63;4993289;28;20026;-60
2021/10/26 00:13:21;;;;;;;9.52;4.50;;;;;;;4.16;100.00;95704.38;5013500;28;20377;-60
2021/10/26 00:15:47;;;;;;;8.45;4.82;;;;;;;4.07;100.00;95701.13;4976638;28;20156;-59
2021/10/26 00:18:13;;;;;;;6.80;4.63;;;;;;;4.01;100.00;95701.97;4993572;28;20104;-60
2021/10/26 00:20:38;;;;;;;6.80;4.63;;;;;;;3.93;100.00;95702.22;4993012;28;20108;-59
2021/10/26 00:23:06;;;;;;;6.72;4.13;;;;;;;3.88;100.00;95696.72;5012616;28;20412;-60
2021/10/26 00:25:32;;;;;;;6.20;4.13;;;;;;;3.87;100.00;95705.69;4993275;28;20108;-60
2021/10/26 00:27:57;;;;;;;6.80;4.28;;;;;;;3.85;100.00;95702.44;5017068;28;20032;-60
2021/10/26 00:30:23;;;;;;;8.40;3.97;;;;;;;3.85;100.00;95714.88;5012609;28;20415;-60
2021/10/26 00:32:48;;;;;;;6.20;3.88;;;;;;;3.85;100.00;95713.03;4992634;28;20401;-60
2021/10/26 00:35:13;;;;;;;7.20;3.85;;;;;;;3.85;100.00;95718.31;5013433;28;20033;-58
2021/10/26 00:37:44;;;;;;;7.47;4.25;;;;;;;3.85;100.00;95723.63;5012861;28;20032;-60
2021/10/26 00:40:11;;;;;;;8.75;3.58;;;;;;;3.83;100.00;95717.72;4982281;28;20432;-60
2021/10/26 00:42:36;;;;;;;5.28;4.00;;;;;;;3.85;100.00;95717.50;4992209;28;20120;-60
2021/10/26 00:45:02;;;;;;;8.70;4.10;;;;;;;3.94;100.00;95729.53;4995603;28;20033;-60
2021/10/26 00:47:27;;;;;;;6.63;4.60;;;;;;;4.00;100.00;95718.88;4993871;28;20030;-60
2021/10/26 00:49:53;;;;;;;5.22;4.00;;;;;;;4.07;100.00;95721.53;4994032;28;20084;-60
2021/10/26 00:52:18;;;;;;;9.40;4.10;;;;;;;4.11;100.00;95722.72;4991807;28;20046;-60
2021/10/26 00:54:44;;;;;;;7.15;4.20;;;;;;;4.17;100.00;95721.91;5012109;28;20034;-60
2021/10/26 00:57:19;;;;;;;5.70;3.85;;;;;;;4.29;100.00;95722.06;4993555;28;20410;-60
2021/10/26 00:59:48;;;;;;;7.13;4.68;;;;;;;4.39;100.00;95714.50;5001729;28;20033;-58
2021/10/26 01:02:13;;;;;;;6.60;4.03;;;;;;;4.47;100.00;95710.78;5014053;28;20393;-60
2021/10/26 01:04:38;;;;;;;6.82;4.15;;;;;;;4.51;100.00;95712.00;4993813;28;20022;-60
2021/10/26 01:07:10;;;;;;;7.65;4.60;;;;;;;4.53;100.00;95710.75;5010181;28;20082;-55
2021/10/26 01:09:41;;;;;;;8.95;4.95;;;;;;;4.57;100.00;95713.81;4985241;28;20496;-59
2021/10/26 01:12:07;;;;;;;8.00;4.20;;;;;;;4.61;100.00;95712.34;4995025;28;20058;-59
2021/10/26 01:14:42;;;;;;;8.25;4.45;;;;;;;4.67;100.00;95714.16;5011979;28;20076;-59
2021/10/26 01:17:11;;;;;;;7.20;4.55;;;;;;;4.74;100.00;95706.16;5013931;28;20045;-60
2021/10/26 01:19:47;;;;;;;5.85;4.05;;;;;;;4.79;100.00;95715.13;4995641;28;20068;-60
2021/10/26 01:22:14;;;;;;;5.88;3.78;;;;;;;4.85;100.00;95713.44;4980147;28;20026;-60
2021/10/26 01:24:49;;;;;;;6.22;4.10;;;;;;;4.91;100.00;95712.59;4996425;28;20033;-60
2021/10/26 01:27:15;;;;;;;8.00;4.72;;;;;;;4.98;100.00;95721.31;5007703;28;20477;-60
2021/10/26 01:29:41;;;;;;;6.05;4.03;;;;;;;5.03;100.00;95704.75;5013322;28;20076;-60
2021/10/26 01:32:08;;;;;;;6.03;3.88;;;;;;;5.06;100.00;95707.78;5012311;28;20123;-58
2021/10/26 01:34:34;;;;;;;7.10;4.50;;;;;;;5.10;100.00;95714.31;4994698;28;20026;-59
2021/10/26 01:37:06;;;;;;;6.03;3.83;;;;;;;5.15;100.00;95716.31;4992842;28;20389;-60
2021/10/26 01:39:33;;;;;;;5.10;3.85;;;;;;;5.20;100.00;95714.63;4995461;28;20068;-60
2021/10/26 01:41:58;;;;;;;6.38;4.30;;;;;;;5.26;100.00;95718.25;4977725;28;20030;-60
2021/10/26 01:44:24;;;;;;;8.10;4.60;;;;;;;-144.43;100.00;64487.81;4998673;28;20620;-60
2021/10/26 01:46:53;;;;;;;5.65;4.07;;;;;;;-144.43;100.00;64487.81;5015436;28;20026;-60
2021/10/26 01:49:19;;;;;;;6.68;4.20;;;;;;;-144.43;100.00;64487.81;5011086;28;20052;-60
2021/10/26 01:51:47;;;;;;;6.10;4.20;;;;;;;-144.43;100.00;64487.81;4994116;28;20042;-60
2021/10/26 01:54:19;;;;;;;8.93;4.78;;;;;;;-144.43;100.00;64487.81;5013864;28;20058;-60
2021/10/26 01:56:45;;;;;;;7.03;4.22;;;;;;;-144.43;100.00;64487.81;5015038;28;20042;-60
2021/10/26 01:59:17;;;;;;;6.30;3.90;;;;;;;-144.43;100.00;64487.81;4993936;28;20562;-60
2021/10/26 02:01:42;;;;;;;5.30;3.95;;;;;;;-144.43;100.00;64487.81;5016781;28;20412;-60
2021/10/26 02:04:10;;;;;;;5.80;3.80;;;;;;;-144.43;100.00;64487.81;4977888;28;20034;-60
2021/10/26 02:06:39;;;;;;;5.90;4.15;;;;;;;-144.43;100.00;64487.81;5012936;28;20112;-61
2021/10/26 02:09:10;;;;;;;5.35;3.92;;;;;;;-144.43;100.00;64487.81;4992199;28;20072;-60
2021/10/26 02:11:38;;;;;;;6.07;3.75;;;;;;;-144.43;100.00;64487.81;5015158;28;20084;-60
2021/10/26 02:14:07;;;;;;;7.30;4.28;;;;;;;-144.43;100.00;64487.81;5015907;28;20022;-60
2021/10/26 02:16:32;;;;;;;6.68;4.18;;;;;;;-144.43;100.00;64487.81;5015970;28;20022;-60
2021/10/26 02:18:58;;;;;;;5.70;4.45;;;;;;;-144.43;100.00;64487.81;4983299;28;20393;-60
2021/10/26 02:21:23;;;;;;;6.88;3.95;;;;;;;-144.43;100.00;64487.81;5017940;28;20485;-60
2021/10/26 02:23:48;;;;;;;6.80;4.22;;;;;;;-144.43;100.00;64487.81;4983991;28;20463;-60
2021/10/26 02:26:14;;;;;;;6.30;3.70;;;;;;;-144.43;100.00;64487.81;4998526;28;20026;-61
2021/10/26 02:28:41;;;;;;;5.85;4.32;;;;;;;-144.43;100.00;64487.81;4996046;28;20072;-61
2021/10/26 02:31:06;;;;;;;5.85;3.78;;;;;;;-144.43;100.00;64487.81;4991380;28;20072;-61
2021/10/26 02:33:35;;;;;;;7.70;4.00;;;;;;;-144.43;100.00;64487.81;5013907;28;20531;-60
2021/10/26 02:36:04;;;;;;;4.72;3.55;;;;;;;-144.43;100.00;64487.81;5006822;28;20025;-60
2021/10/26 02:38:32;;;;;;;5.68;3.65;;;;;;;-144.43;100.00;64487.81;4982942;28;20106;-60
2021/10/26 02:40:57;;;;;;;5.68;3.65;;;;;;;-144.43;100.00;64487.81;4995576;28;20025;-60
2021/10/26 02:43:25;;;;;;;6.63;3.72;;;;;;;-144.43;100.00;64487.81;4996500;28;20465;-60
2021/10/26 02:45:50;;;;;;;7.72;3.83;;;;;;;-144.43;100.00;64487.81;4995748;28;20087;-61
2021/10/26 02:48:16;;;;;;;5.40;3.72;;;;;;;-144.43;100.00;64487.81;5013752;28;20389;-60
2021/10/26 02:50:44;;;;;;;6.53;3.90;;;;;;;-144.43;100.00;64487.81;5001449;28;20034;-60
2021/10/26 02:53:10;;;;;;;6.70;3.83;;;;;;;-144.43;100.00;64487.81;5010517;28;20079;-58
2021/10/26 02:55:35;;;;;;;5.97;3.97;;;;;;;-144.43;100.00;64487.81;5014184;28;20030;-60
2021/10/26 02:58:03;;;;;;;7.63;3.65;;;;;;;-144.43;100.00;64487.81;4998884;28;20044;-58
2021/10/26 03:00:29;;;;;;;7.50;3.95;;;;;;;-144.43;100.00;64487.81;5013095;28;20022;-61
2021/10/26 03:02:54;;;;;;;5.65;3.92;;;;;;;-144.43;100.00;64487.81;4995243;28;20036;-60
2021/10/26 03:05:20;;;;;;;7.47;3.60;;;;;;;-144.43;100.00;64487.81;4994686;28;20110;-60
2021/10/26 03:07:46;;;;;;;6.78;3.60;;;;;;;-144.43;100.00;64487.81;5016237;28;20056;-61
2021/10/26 03:10:17;;;;;;;5.25;3.75;;;;;;;-144.43;100.00;64487.81;5016184;28;20105;-60
2021/10/26 03:12:42;;;;;;;5.38;3.80;;;;;;;-144.43;100.00;64487.81;4996530;28;20036;-61
2021/10/26 03:15:10;;;;;;;6.75;3.55;;;;;;;-144.43;100.00;64487.81;5018622;28;20631;-58
2021/10/26 03:17:43;;;;;;;5.10;3.75;;;;;;;-144.43;100.00;64487.81;4976303;28;20037;-60
2021/10/26 03:20:09;;;;;;;5.70;3.85;;;;;;;-144.43;100.00;64487.81;5013098;28;20045;-59
2021/10/26 03:22:35;;;;;;;8.45;4.22;;;;;;;-144.43;100.00;64487.81;5016083;28;20034;-61
2021/10/26 03:25:07;;;;;;;4.30;3.35;;;;;;;-144.43;100.00;64487.81;4998680;28;20029;-61
2021/10/26 03:27:34;;;;;;;6.65;4.32;;;;;;;-144.43;100.00;64487.81;4981539;28;20037;-60
2021/10/26 03:30:00;;;;;;;5.45;3.63;;;;;;;-144.43;100.00;64487.81;4998385;28;20026;-61
2021/10/26 03:32:26;;;;;;;5.90;3.83;;;;;;;-144.43;100.00;64487.81;4999708;28;20036;-60
2021/10/26 03:34:52;;;;;;;10.40;5.45;;;;;;;-144.43;100.00;64487.81;4996720;28;20480;-60
2021/10/26 03:37:17;;;;;;;6.63;4.40;;;;;;;-144.43;100.00;64487.81;4995513;28;20038;-60
2021/10/26 03:39:44;;;;;;;6.63;4.40;;;;;;;-144.43;100.00;64487.81;5013548;28;20026;-61
2021/10/26 03:42:19;;;;;;;5.95;3.72;;;;;;;-144.43;100.00;64487.81;5015848;28;20030;-60
2021/10/26 03:44:47;;;;;;;6.45;3.90;;;;;;;-144.43;100.00;64487.81;4996910;28;20401;-61
2021/10/26 03:47:12;;;;;;;5.93;3.45;;;;;;;-144.43;100.00;64487.81;4995158;28;20040;-60
2021/10/26 03:49:41;;;;;;;5.40;3.75;;;;;;;-144.43;100.00;64487.81;4994464;28;20026;-61
2021/10/26 03:52:06;;;;;;;6.60;4.05;;;;;;;-144.43;100.00;64487.81;5016762;28;20056;-60
2021/10/26 03:54:38;;;;;;;6.05;3.83;;;;;;;-144.43;100.00;64487.81;4993585;28;20025;-60
2021/10/26 03:57:11;;;;;;;10.48;4.13;;;;;;;-144.43;100.00;64487.81;5003248;28;20437;-60
2021/10/26 03:59:37;;;;;;;;;;;;;;;-144.43;100.00;64487.81;5027593;28;20030;-56
2021/10/26 04:02:10;;;;;;;5.47;4.05;;;;;;;-144.43;100.00;64487.81;5011076;28;19916;-60
2021/10/26 04:04:39;;;;;;;5.05;3.58;;;;;;;-144.43;100.00;64487.81;5015951;28;20105;-60
2021/10/26 04:07:08;;;;;;;4.95;3.70;;;;;;;-144.43;100.00;64487.81;5014909;28;20037;-60
2021/10/26 04:09:52;;;;;;;4.88;3.45;;;;;;;-144.43;100.00;64487.81;5015243;28;20033;-60
2021/10/26 04:14:50;;;;;;;5.15;3.78;;;;;;;-144.43;100.00;64487.81;5014839;28;20029;-59
2021/10/26 04:17:16;;;;;;;5.57;3.83;;;;;;;-144.43;100.00;64487.81;4980845;28;20068;-60
2021/10/26 04:19:41;;;;;;;4.40;3.53;;;;;;;-144.43;100.00;64487.81;4952422;28;20065;-60
2021/10/26 04:22:08;;;;;;;7.43;4.57;;;;;;;-144.43;100.00;64487.81;5001618;28;20440;-60
2021/10/26 04:24:34;;;;;;;6.38;4.10;;;;;;;-144.43;100.00;64487.81;4995120;28;20049;-60
2021/10/26 04:26:59;;;;;;;5.63;3.55;;;;;;;-144.43;100.00;64487.81;5001341;28;20038;-60
2021/10/26 04:29:25;;;;;;;5.53;3.50;;;;;;;-144.43;100.00;64487.81;5006294;28;20091;-60
2021/10/26 04:31:50;;;;;;;7.43;3.92;;;;;;;-144.43;100.00;64487.81;5001964;28;20034;-60
2021/10/26 04:34:16;;;;;;;5.82;3.65;;;;;;;-144.43;100.00;64487.81;5002278;28;20441;-60
2021/10/26 04:36:41;;;;;;;5.90;4.15;;;;;;;-144.43;100.00;64487.81;5010669;28;20030;-61
2021/10/26 04:39:06;;;;;;;5.93;3.50;;;;;;;-144.43;100.00;64487.81;5015968;28;20030;-61
2021/10/26 04:41:33;;;;;;;5.55;3.78;;;;;;;-144.43;100.00;64487.81;5002385;28;20021;-60
2021/10/26 04:44:00;;;;;;;6.53;4.07;;;;;;;-144.43;100.00;64487.81;5012999;28;20499;-59
2021/10/26 04:46:25;;;;;;;5.97;3.55;;;;;;;-144.43;100.00;64487.81;4977040;28;20033;-60
2021/10/26 04:48:51;;;;;;;5.93;3.17;;;;;;;-144.43;100.00;64487.81;4997896;28;20033;-60
2021/10/26 04:51:16;;;;;;;6.22;3.65;;;;;;;-144.43;100.00;64487.81;5013280;28;20108;-60
2021/10/26 04:53:41;;;;;;;6.00;4.28;;;;;;;-144.43;100.00;64487.81;5031568;23;20054;-63
2021/10/26 04:56:07;;;;;;;6.00;4.13;;;;;;;-144.43;100.00;64487.81;4993231;28;20060;-64
2021/10/26 04:58:32;;;;;;;5.28;3.88;;;;;;;-144.43;100.00;64487.81;5010772;28;20061;-64
2021/10/26 05:00:57;;;;;;;12.23;4.10;;;;;;;-144.43;100.00;64487.81;4993286;28;20107;-64
2021/10/26 05:03:23;;;;;;;5.38;3.53;;;;;;;-144.43;100.00;64487.81;4993459;28;20495;-63
2021/10/26 05:05:48;;;;;;;7.65;4.30;;;;;;;-144.43;100.00;64487.81;5006619;28;20029;-63
2021/10/26 05:08:16;;;;;;;8.98;4.20;;;;;;;-144.43;100.00;64487.81;5023781;28;20025;-64
2021/10/26 05:10:41;;;;;;;7.18;4.38;;;;;;;-144.43;100.00;64487.81;5001526;28;20029;-64
2021/10/26 05:13:06;;;;;;;5.70;4.00;;;;;;;-144.43;100.00;64487.81;5014636;28;20042;-64
2021/10/26 05:15:32;;;;;;;4.45;3.72;;;;;;;-144.43;100.00;64487.81;5010499;28;20034;-62
2021/10/26 05:17:58;;;;;;;5.25;3.90;;;;;;;-144.43;100.00;64487.81;5012161;28;20025;-64
2021/10/26 05:20:24;;;;;;;4.50;3.70;;;;;;;-144.43;100.00;64487.81;5002578;28;20025;-62
2021/10/26 05:22:51;;;;;;;4.45;3.40;;;;;;;-144.43;100.00;64487.81;4991664;28;20028;-64
2021/10/26 05:25:18;;;;;;;6.90;3.83;;;;;;;-144.43;100.00;64487.81;4981784;28;20057;-63
2021/10/26 05:27:44;;;;;;;5.55;3.70;;;;;;;-144.43;100.00;64487.81;4999043;28;20029;-62
2021/10/26 05:30:09;;;;;;;4.93;3.80;;;;;;;-144.43;100.00;64487.81;4997113;28;20685;-65
2021/10/26 05:32:35;;;;;;;10.15;4.07;;;;;;;-144.43;100.00;64487.81;5015541;28;20024;-64
2021/10/26 05:35:00;;;;;;;5.78;3.80;;;;;;;-144.43;100.00;64487.81;5008726;28;20120;-64
2021/10/26 05:37:26;;;;;;;5.30;3.92;;;;;;;-144.43;100.00;64487.81;5006202;28;20388;-62
2021/10/26 05:39:51;;;;;;;7.13;3.90;;;;;;;-144.43;100.00;64487.81;5001466;28;20088;-63
2021/10/26 05:42:16;;;;;;;5.63;3.78;;;;;;;-144.43;100.00;64487.81;5020790;28;20109;-63
2021/10/26 05:44:42;;;;;;;6.97;4.00;;;;;;;-144.43;100.00;64487.81;5016003;28;20033;-64
2021/10/26 05:47:07;;;;;;;5.95;3.72;;;;;;;-144.43;100.00;64487.81;4984929;28;20124;-64
2021/10/26 05:49:33;;;;;;;6.20;3.97;;;;;;;-144.43;100.00;64487.81;5018537;28;20105;-63
2021/10/26 05:51:58;;;;;;;6.05;3.72;;;;;;;-144.43;100.00;64487.81;5002385;28;20026;-64
2021/10/26 05:54:24;;;;;;;6.05;3.90;;;;;;;-144.43;100.00;64487.81;4999920;28;20022;-64
2021/10/26 05:56:50;;;;;;;6.70;3.72;;;;;;;-144.43;100.00;64487.81;4996843;28;20026;-64
2021/10/26 05:59:15;;;;;;;7.20;4.25;;;;;;;-144.43;100.00;64487.81;5022486;28;20030;-64
2021/10/26 06:01:41;;;;;;;5.43;3.53;;;;;;;-144.43;100.00;64487.81;4998636;28;20109;-64
2021/10/26 06:04:06;;;;;;;5.05;3.83;;;;;;;-144.43;100.00;64487.81;4996192;28;20045;-64
2021/10/26 06:06:33;;;;;;;6.10;3.72;;;;;;;-144.43;100.00;64487.81;4993487;28;20495;-64
2021/10/26 06:08:58;;;;;;;5.10;3.50;;;;;;;-144.43;100.00;64487.81;4995246;28;20029;-63
2021/10/26 06:11:25;;;;;;;5.95;4.00;;;;;;;-144.43;100.00;64487.81;4980700;28;20125;-65
2021/10/26 06:14:01;;;;;;;6.95;3.80;;;;;;;-144.43;100.00;64487.81;5013412;28;20024;-66
2021/10/26 06:16:32;;;;;;;6.13;4.10;;;;;;;-144.43;100.00;64487.81;5008724;28;20025;-64
2021/10/26 06:18:59;;;;;;;4.95;3.83;;;;;;;-144.43;100.00;64487.81;5004551;28;20026;-64
2021/10/26 06:21:25;;;;;;;6.60;3.58;;;;;;;-144.43;100.00;64487.81;4992191;28;20026;-63
2021/10/26 06:23:53;;;;;;;8.23;4.05;;;;;;;-144.43;100.00;64487.81;5021166;28;20025;-63
2021/10/26 06:26:18;;;;;;;5.55;3.78;;;;;;;-144.43;100.00;64487.81;4996642;28;20072;-62
2021/10/26 06:28:44;;;;;;;6.45;3.75;;;;;;;-144.43;100.00;64487.81;4996282;28;20391;-64
2021/10/26 06:31:10;;;;;;;5.57;3.85;;;;;;;-144.43;100.00;64487.81;5005895;28;20041;-64
2021/10/26 06:33:35;;;;;;;5.57;3.97;;;;;;;-144.43;100.00;64487.81;5005408;28;20017;-63
2021/10/26 06:36:01;;;;;;;6.28;3.92;;;;;;;-144.43;100.00;64487.81;5021333;28;20515;-64
2021/10/26 06:38:26;;;;;;;6.95;4.35;;;;;;;-144.43;100.00;64487.81;5017247;28;20036;-64
2021/10/26 06:40:52;;;;;;;6.38;4.25;;;;;;;-144.43;100.00;64487.81;5009344;28;20477;-64
2021/10/26 06:43:17;;;;;;;5.93;3.85;;;;;;;-144.43;100.00;64487.81;5004169;28;20024;-63
2021/10/26 06:45:43;;;;;;;6.65;3.95;;;;;;;-144.43;100.00;64487.81;5006931;28;20141;-67
2021/10/26 06:48:08;;;;;;;6.50;4.53;;;;;;;-144.43;100.00;64487.81;5024057;28;20026;-63
2021/10/26 06:50:33;;;;;;;4.80;3.60;;;;;;;-144.43;100.00;64487.81;5021485;28;20037;-63
2021/10/26 06:52:59;;;;;;;5.03;3.65;;;;;;;-144.43;100.00;64487.81;4994398;28;20496;-62
2021/10/26 06:55:24;;;;;;;4.68;3.80;;;;;;;-144.43;100.00;64487.81;4997486;28;20030;-63
2021/10/26 06:57:50;;;;;;;7.03;3.85;;;;;;;-144.43;100.00;64487.81;4999567;28;20038;-63
2021/10/26 07:00:17;;;;;;;6.82;4.05;;;;;;;-144.43;100.00;64487.81;4995669;28;20061;-65
2021/10/26 07:02:47;;;;;;;7.53;3.95;;;;;;;-144.43;100.00;64487.81;4996829;28;20029;-64
2021/10/26 07:05:17;;;;;;;6.35;4.10;;;;;;;-144.43;100.00;64487.81;5017379;28;20396;-64
2021/10/26 07:07:43;;;;;;;6.55;3.60;;;;;;;-144.43;100.00;64487.81;5019082;28;20458;-62
2021/10/26 07:10:08;;;;;;;5.47;3.75;;;;;;;-144.43;100.00;64487.81;5016945;28;20034;-64
2021/10/26 07:12:35;;;;;;;7.32;3.90;;;;;;;-144.43;100.00;64487.81;5016033;28;20024;-64
2021/10/26 07:15:02;;;;;;;6.00;3.97;;;;;;;-144.43;100.00;64487.81;5015384;28;20395;-64
2021/10/26 07:17:27;;;;;;;5.25;3.92;;;;;;;-144.43;100.00;64487.81;4984927;28;20068;-64
2021/10/26 07:19:52;;;;;;;6.60;4.00;;;;;;;-144.43;100.00;64487.81;4983039;28;20025;-63
2021/10/26 07:22:18;;;;;;;7.15;3.72;;;;;;;-144.43;100.00;64487.81;5004574;28;20083;-64
2021/10/26 07:24:43;;;;;;;4.72;3.50;;;;;;;-144.43;100.00;64487.81;5013961;28;20041;-64
2021/10/26 07:27:11;;;;;;;5.55;3.80;;;;;;;-144.43;100.00;64487.81;5011617;28;20036;-60
2021/10/26 07:29:37;;;;;;;5.25;4.18;;;;;;;-144.43;100.00;64487.81;5009513;28;20121;-62
2021/10/26 07:32:02;;;;;;;5.65;3.97;;;;;;;-144.43;100.00;64487.81;5013306;28;20160;-63
2021/10/26 07:34:32;;;;;;;6.35;4.43;;;;;;;-144.43;100.00;64487.81;4978077;28;20028;-63
2021/10/26 07:36:57;;;;;;;6.38;3.97;;;;;;;-144.43;100.00;64487.81;5012149;28;20044;-62
2021/10/26 07:41:56;;;;;;;6.75;4.05;;;;;;;-144.43;100.00;64487.81;5012829;28;20034;-63
2021/10/26 07:44:22;;;;;;;6.07;4.18;;;;;;;-144.43;100.00;64487.81;4993627;28;20530;-62
2021/10/26 07:46:47;;;;;;;8.15;4.35;;;;;;;-144.43;100.00;64487.81;4980409;28;20068;-61
2021/10/26 07:49:13;;;;;;;6.93;4.07;;;;;;;-144.43;100.00;64487.81;5014129;28;20092;-63
2021/10/26 07:51:38;;;;;;;5.82;4.03;;;;;;;-144.43;100.00;64487.81;4991535;28;20026;-64
2021/10/26 07:54:06;;;;;;;8.18;4.72;;;;;;;-144.43;100.00;64487.81;5010774;28;20042;-63
2021/10/26 07:56:31;;;;;;;7.60;3.85;;;;;;;-144.43;100.00;64487.81;5008935;28;20445;-63
2021/10/26 07:58:58;;;;;;;6.60;4.15;;;;;;;-144.43;100.00;64487.81;4996252;28;20025;-64
2021/10/26 08:01:23;;;;;;;6.35;4.18;;;;;;;-144.43;100.00;64487.81;5011455;28;20022;-64
2021/10/26 08:03:50;;;;;;;6.72;3.85;;;;;;;-144.43;100.00;64487.81;4994396;28;20488;-64
2021/10/26 08:06:18;;;;;;;9.10;4.47;;;;;;;-144.43;100.00;64487.81;5012330;28;20061;-63
2021/10/26 08:08:43;;;;;;;7.60;4.22;;;;;;;-144.43;100.00;64487.81;5011967;28;20491;-64
2021/10/26 08:11:09;;;;;;;7.55;4.30;;;;;;;-144.43;100.00;64487.81;4993508;28;20042;-64
2021/10/26 08:13:35;;;;;;;7.45;4.50;;;;;;;-144.43;100.00;64487.81;4993597;28;20473;-64
2021/10/26 08:16:00;;;;;;;6.38;4.25;;;;;;;-144.43;100.00;64487.81;4992443;28;20505;-64
2021/10/26 08:18:28;;;;;;;6.03;3.53;;;;;;;-144.43;100.00;64487.81;5010966;28;20046;-64
2021/10/26 08:20:53;;;;;;;9.20;4.28;;;;;;;-144.43;100.00;64487.81;5007038;28;20385;-64
2021/10/26 08:23:20;;;;;;;5.18;3.55;;;;;;;-144.43;100.00;64487.81;5010048;28;20080;-63
2021/10/26 08:25:50;;;;;;;7.32;3.90;;;;;;;-144.43;100.00;64487.81;5015930;28;20040;-64
2021/10/26 08:28:17;;;;;;;7.95;3.60;;;;;;;-144.43;100.00;64487.81;5013118;28;20034;-62
2021/10/26 08:30:52;;;;;;;6.50;3.63;;;;;;;-144.43;100.00;64487.81;4994840;28;20034;-61
2021/10/26 08:33:37;;;;;;;5.70;3.58;;;;;;;-144.43;100.00;64487.81;4997092;28;20033;-62
2021/10/26 08:36:03;;;;;;;12.32;3.72;;;;;;;-144.43;100.00;64487.81;5004949;28;20029;-62
2021/10/26 08:38:29;;;;;;;5.55;3.70;;;;;;;-144.43;100.00;64487.81;4992795;28;20460;-64
2021/10/26 08:40:54;;;;;;;5.82;3.55;;;;;;;-144.43;100.00;64487.81;4974888;28;20053;-63
2021/10/26 08:43:22;;;;;;;7.13;4.07;;;;;;;-144.43;100.00;64487.81;4988681;28;20056;-61
2021/10/26 08:45:48;;;;;;;5.55;3.70;;;;;;;-144.43;100.00;64487.81;4989978;28;20030;-63
2021/10/26 08:48:23;;;;;;;6.43;3.88;;;;;;;-144.43;100.00;64487.81;5001714;28;20036;-63
2021/10/26 08:50:51;;;;;;;6.72;4.10;;;;;;;-144.43;100.00;64487.81;4981395;28;20071;-62
2021/10/26 08:53:17;;;;;;;5.10;3.50;;;;;;;-144.43;100.00;64487.81;4991252;28;20393;-63
2021/10/26 08:55:44;;;;;;;7.25;4.10;;;;;;;-144.43;100.00;64487.81;5016865;28;20030;-64
2021/10/26 08:58:10;;;;;;;6.05;4.25;;;;;;;-144.43;100.00;64487.81;4998731;28;20036;-64
2021/10/26 09:00:37;;;;;;;7.55;4.22;;;;;;;-144.43;100.00;64487.81;4993593;28;20104;-64
2021/10/26 09:03:24;;;;;;;6.13;4.22;;;;;;;-144.43;100.00;64487.81;4996755;28;20015;-64
2021/10/26 09:05:50;;;;;;;7.32;4.50;;;;;;;-144.43;100.00;64487.81;4979055;28;20037;-64
2021/10/26 09:08:20;;;;;;;8.23;5.03;;;;;;;-144.43;100.00;64487.81;4992782;28;20025;-64
2021/10/26 09:10:46;;;;;;;9.70;5.05;;;;;;;-144.43;100.00;64487.81;4983627;28;20029;-64
2021/10/26 09:16:49;;;;;;;9.95;4.95;;;;;;;-144.43;100.00;64487.81;5013521;28;20037;-63
2021/10/26 09:19:20;;;;;;;7.88;4.80;;;;;;;-144.43;100.00;64487.81;4994994;28;20036;-64
2021/10/26 09:21:58;;;;;;;8.90;4.82;;;;;;;-144.43;100.00;64487.81;5010635;28;20076;-64
2021/10/26 09:24:26;;;;;;;9.40;5.28;;;;;;;-144.43;100.00;64487.81;5009087;28;20477;-64
2021/10/26 09:27:00;;;;;;;8.63;4.82;;;;;;;-144.43;100.00;64487.81;4977746;28;20046;-64
2021/10/26 09:29:48;;;;;;;8.95;5.20;;;;;;;-144.43;100.00;64487.81;4990305;28;20075;-64
2021/10/26 09:32:16;;;;;;;9.25;4.70;;;;;;;-144.43;100.00;64487.81;5009206;28;20117;-60
2021/10/26 09:34:47;;;;;;;8.50;5.22;;;;;;;-144.43;100.00;64487.81;4985623;28;20049;-64
2021/10/26 09:37:15;;;;;;;8.43;5.05;;;;;;;-144.43;100.00;64487.81;5007124;28;20502;-64
2021/10/26 09:39:56;;;;;;;10.00;4.72;;;;;;;-144.43;100.00;64487.81;4975822;28;20117;-64
2021/10/26 09:42:21;;;;;;;8.27;5.00;;;;;;;-144.43;100.00;64487.81;5010764;28;20079;-62
2021/10/26 09:44:50;;;;;;;7.60;4.88;;;;;;;-144.43;100.00;64487.81;4993284;28;20033;-62
2021/10/26 09:47:29;;;;;;;7.40;4.25;;;;;;;-144.43;100.00;64487.81;4993411;28;20025;-64
2021/10/26 09:50:09;;;;;;;7.30;4.63;;;;;;;-144.43;100.00;64487.81;4995358;28;20546;-64
2021/10/26 09:52:41;;;;;;;8.63;4.72;;;;;;;-144.43;100.00;64487.81;4992965;28;20497;-63
2021/10/26 09:57:56;;;;;;;6.43;4.57;;;;;;;-144.43;100.00;64487.81;5007293;28;20061;-64
2021/10/26 10:00:34;;;;;;;8.10;4.88;;;;;;;-144.43;100.00;64487.81;4991452;28;20117;-63
2021/10/26 10:03:09;;;;;;;10.15;5.05;;;;;;;-144.43;100.00;64487.81;5009832;28;20044;-63
2021/10/26 10:05:51;;;;;;;9.50;4.75;;;;;;;-144.43;100.00;64487.81;4976360;28;20173;-64
2021/10/26 10:08:16;;;;;;;7.18;5.10;;;;;;;-144.43;100.00;64487.81;4988325;28;20036;-63
2021/10/26 10:10:42;;;;;;;9.43;4.90;;;;;;;-144.43;100.00;64487.81;5009183;28;20779;-64
2021/10/26 10:13:07;;;;;;;6.45;4.68;;;;;;;-144.43;100.00;64487.81;5007424;28;20600;-64
2021/10/26 10:15:33;;;;;;;9.52;4.60;;;;;;;-144.43;100.00;64487.81;5008966;28;20120;-64
2021/10/26 10:18:00;;;;;;;6.95;4.35;;;;;;;-144.43;100.00;64487.81;4994597;28;20029;-64
2021/10/26 10:20:25;;;;;;;10.13;5.07;;;;;;;-144.43;100.00;64487.81;4998685;28;20026;-64
2021/10/26 10:22:51;;;;;;;9.05;4.75;;;;;;;-144.43;100.00;64487.81;4997576;28;20037;-64
2021/10/26 10:25:17;;;;;;;7.47;4.63;;;;;;;-144.43;100.00;64487.81;4993605;28;20389;-62
2021/10/26 10:27:45;;;;;;;6.72;4.50;;;;;;;-144.43;100.00;64487.81;5015614;28;20153;-64
2021/10/26 10:30:11;;;;;;;9.70;5.38;;;;;;;-144.43;100.00;64487.81;5006855;28;20037;-64
2021/10/26 10:32:38;;;;;;;7.00;4.85;;;;;;;-144.43;100.00;64487.81;5012062;28;20570;-63
2021/10/26 10:35:07;;;;;;;8.90;5.15;;;;;;;-144.43;100.00;64487.81;5019202;28;20026;-63
2021/10/26 10:37:34;;;;;;;7.10;4.97;;;;;;;-144.43;100.00;64487.81;5003908;28;20026;-63
2021/10/26 10:40:01;;;;;;;8.48;4.95;;;;;;;-144.43;100.00;64487.81;5017343;28;20021;-63
2021/10/26 10:42:30;;;;;;;7.43;4.60;;;;;;;-144.43;100.00;64487.81;5001221;28;20029;-63
2021/10/26 10:45:00;;;;;;;9.13;5.00;;;;;;;-144.43;100.00;64487.81;5012470;28;20033;-64
2021/10/26 10:47:30;;;;;;;9.43;4.82;;;;;;;-144.43;100.00;64487.81;5016366;28;20017;-63
2021/10/26 10:49:59;;;;;;;6.80;4.82;;;;;;;-144.43;100.00;64487.81;5019673;28;20021;-62
2021/10/26 10:52:32;;;;;;;7.18;4.80;;;;;;;-144.43;100.00;64487.81;5010114;23;20065;-59
2021/10/26 10:55:01;;;;;;;8.85;5.60;;;;;;;-144.43;100.00;64487.81;5014458;28;20038;-62
2021/10/26 10:57:34;;;;;;;7.93;5.50;;;;;;;-144.43;100.00;64487.81;5001480;28;20018;-62
2021/10/26 11:00:03;;;;;;;8.48;5.18;;;;;;;-144.43;100.00;64487.81;4999993;28;20033;-62
2021/10/26 11:02:41;;;;;;;9.10;5.40;;;;;;;-144.43;100.00;64487.81;4999173;28;20026;-61
2021/10/26 11:05:07;;;;;;;8.75;5.72;;;;;;;-144.43;100.00;64487.81;5008772;28;20076;-62
2021/10/26 11:07:41;;;;;;;9.77;5.07;;;;;;;-144.43;100.00;64487.81;4991521;28;20496;-63
2021/10/26 11:10:07;;;;;;;7.47;5.30;;;;;;;-144.43;100.00;64487.81;5005185;28;20140;-62
2021/10/26 11:12:36;;;;;;;9.70;5.78;;;;;;;-144.43;100.00;64487.81;5007081;28;20468;-63
2021/10/26 11:15:07;;;;;;;8.75;5.25;;;;;;;-144.43;100.00;64487.81;5011547;28;20048;-62
2021/10/26 11:17:35;;;;;;;7.35;4.93;;;;;;;-144.43;100.00;64487.81;5009730;28;20028;-60
2021/10/26 11:20:05;;;;;;;7.38;4.75;;;;;;;-144.43;100.00;64487.81;5013050;28;20032;-63
2021/10/26 11:22:58;;;;;;;8.38;4.78;;;;;;;-144.43;100.00;64487.81;5011962;28;20113;-62
2021/10/26 11:25:35;;;;;;;9.23;4.88;;;;;;;-144.43;100.00;64487.81;5007037;28;20311;-62